Latest Weather Observations for Wangaratta

IDV60801

Issued at 9:02 am EST Sunday 22 May 2022 (issued every 10 minutes, with the page automatically refreshed every 10 minutes)

About weather observations | Map of weather stations | Latest weather observations for VIC | Other Formats
Station Details ID: 082138 Name: WANGARATTA AERO Lat: -36.42 Lon: 146.31 Height: 152.6 m
Data from the previous 72 hours. | See also: Recent months at Wangaratta
Date/Time
EST
Temp
°C
App
Temp
°C
Dew
Point
°C
Rel
Hum
%
Delta-T
°C
Wind Press
QNH
hPa
Press
MSL
hPa
Rain since
9am
mm
Dir  Spd
km/h
Gust
km/h
Spd
kts
Gust
kts
22/09:00am 7.1 4.6 4.9 86 1.0 SSW 7 9 4 5 1030.7 1030.9 0.0
22/08:30am 4.9 3.7 4.8 99 0.0 CALM 0 0 0 0 1030.8 1031.0 0.0
22/08:00am 2.0 0.3 1.9 99 0.0 CALM 0 0 0 0 1030.8 1031.0 0.0
22/07:30am 1.1 -0.7 1.0 99 0.0 CALM 0 0 0 0 1030.7 1030.9 0.0
22/07:00am 0.2 -2.9 0.1 99 0.0 SSW 6 7 3 4 1030.6 1030.8 0.0
22/06:43am 1.2 -1.9 1.1 99 0.0 SSE 7 9 4 5 1030.4 1030.6 0.0
22/06:30am 1.2 -1.8 1.1 99 0.0 SSW 6 7 3 4 1030.3 1030.5 0.0
22/06:24am 1.5 -1.6 1.4 99 0.0 SSW 7 9 4 5 1030.2 1030.4 0.0
22/06:00am 0.7 -2.5 0.6 99 0.0 SW 7 9 4 5 1030.2 1030.4 0.0
22/05:58am 1.0 -2.2 0.9 99 0.0 SW 7 9 4 5 1030.2 1030.4 0.0
22/05:38am 1.4 -1.1 1.3 99 0.0 SW 4 6 2 3 1030.1 1030.3 0.0
22/05:30am 0.6 -2.4 0.5 99 0.0 SW 6 7 3 4 1030.2 1030.4 0.0
22/05:07am 0.2 -2.1 0.1 99 0.0 SSW 2 7 1 4 1030.1 1030.3 0.0
22/05:00am 0.5 -1.4 0.4 99 0.0 CALM 0 2 0 1 1030.1 1030.3 0.0
22/04:48am 1.4 -1.1 1.3 99 0.0 SSE 4 7 2 4 1030.0 1030.2 0.0
22/04:30am 1.7 -1.4 1.6 99 0.0 SW 7 7 4 4 1030.0 1030.2 0.0
22/04:17am 1.5 -1.6 1.4 99 0.0 SW 7 9 4 5 1030.1 1030.3 0.0
22/04:00am 1.5 -1.4 1.4 99 0.0 SSW 6 9 3 5 1030.1 1030.3 0.0
22/03:58am 1.9 -1.1 1.8 99 0.0 SSW 7 9 4 5 1030.1 1030.3 0.0
22/03:35am 0.9 -2.3 0.8 99 0.0 SW 7 9 4 5 1030.2 1030.4 0.0
22/03:30am 0.7 -2.5 0.6 99 0.0 SW 7 9 4 5 1030.2 1030.4 0.0
22/03:05am 1.5 -0.3 1.4 99 0.0 CALM 0 0 0 0 1030.4 1030.6 0.0
22/03:00am 1.3 -0.5 1.2 99 0.0 CALM 0 0 0 0 1030.4 1030.6 0.0
22/02:48am 2.2 0.5 2.1 99 0.0 CALM 0 0 0 0 1030.5 1030.7 0.0
22/02:30am 1.7 -1.7 1.6 99 0.0 SW 9 11 5 6 1030.3 1030.5 0.0
22/02:00am 1.7 -0.8 1.6 99 0.0 SSW 4 7 2 4 1030.5 1030.7 0.0
22/01:30am 2.8 0.1 2.7 99 0.0 SSW 6 7 3 4 1030.5 1030.7 0.0
22/01:14am 2.4 -0.4 2.3 99 0.0 SW 6 7 3 4 1030.6 1030.8 0.0
22/01:00am 2.8 1.2 2.7 99 0.0 CALM 0 0 0 0 1030.6 1030.8 0.0
22/12:59am 2.9 1.4 2.8 99 0.0 CALM 0 0 0 0 1030.6 1030.8 0.0
22/12:30am 3.1 0.5 3.0 99 0.0 WSW 6 6 3 3 1030.7 1030.9 0.0
22/12:00am 3.2 1.7 3.1 99 0.0 CALM 0 0 0 0 1030.8 1031.0 0.0
 
Date/Time
EST
Temp
°C
App
Temp
°C
Dew
Point
°C
Rel
Hum
%
Delta-T
°C
Wind Press
QNH
hPa
Press
MSL
hPa
Rain since
9am
mm
Dir  Spd
km/h
Gust
km/h
Spd
kts
Gust
kts
21/11:30pm 3.9 2.5 3.8 99 0.0 CALM 0 0 0 0 1030.7 1030.9 0.0
21/11:00pm 3.9 2.5 3.8 99 0.0 CALM 0 0 0 0 1030.7 1030.9 0.0
21/10:30pm 4.9 3.0 4.8 99 0.0 WSW 4 6 2 3 1030.7 1030.9 0.0
21/10:00pm 4.4 2.0 4.1 98 0.1 WSW 6 7 3 4 1030.8 1031.0 0.0
21/09:30pm 5.3 3.0 4.9 97 0.2 SW 6 7 3 4 1030.7 1030.9 0.0
21/09:00pm 6.0 4.5 5.0 93 0.4 SSW 2 7 1 4 1030.7 1030.9 0.0
21/08:30pm 7.6 5.4 6.4 92 0.6 S 7 9 4 5 1030.4 1030.6 0.0
21/08:00pm 8.9 6.5 6.9 87 0.9 S 9 9 5 5 1030.3 1030.5 0.0
21/07:30pm 7.9 5.6 5.7 86 1.0 S 7 9 4 5 1030.0 1030.2 0.0
21/07:00pm 8.7 6.6 5.6 81 1.4 SSE 6 7 3 4 1029.8 1030.0 0.0
21/06:30pm 10.4 8.1 5.8 73 2.1 SW 7 7 4 4 1029.6 1029.8 0.0
21/06:00pm 10.6 7.9 5.6 71 2.3 SW 9 11 5 6 1029.5 1029.7 0.0
21/05:30pm 11.8 9.7 6.7 71 2.4 WSW 7 9 4 5 1029.5 1029.7 0.0
21/05:00pm 14.3 11.4 6.4 59 3.8 WSW 11 13 6 7 1029.6 1029.8 0.0
21/04:30pm 15.9 13.5 7.1 56 4.4 WSW 9 11 5 6 1029.6 1029.8 0.0
21/04:00pm 18.0 14.7 6.5 47 5.7 SW 13 15 7 8 1029.7 1029.9 0.0
21/03:30pm 18.7 15.7 6.2 44 6.2 SSW 11 15 6 8 1029.7 1029.9 0.0
21/03:00pm 19.1 16.7 5.2 40 6.8 SW 7 13 4 7 1029.7 1029.9 0.0
21/02:30pm 18.9 16.4 4.7 39 6.9 SSW 7 13 4 7 1029.8 1030.0 0.0
21/02:00pm 18.8 15.9 4.6 39 6.8 SSW 9 15 5 8 1030.2 1030.4 0.0
21/01:52pm 18.7 16.0 5.5 42 6.5 S 9 13 5 7 1030.2 1030.4 0.0
21/01:30pm 18.2 15.6 6.1 45 6.0 S 9 13 5 7 1030.4 1030.6 0.0
21/01:10pm 17.8 15.0 5.1 43 6.2 SSW 9 15 5 8 1030.8 1031.0 0.0
21/01:00pm 18.0 15.5 6.5 47 5.7 S 9 13 5 7 1030.9 1031.1 0.0
21/12:30pm 16.6 14.3 5.9 49 5.2 S 7 11 4 6 1031.3 1031.5 0.0
21/12:00pm 15.6 13.6 7.1 57 4.2 SW 7 11 4 6 1031.9 1032.1 0.0
21/11:30am 14.5 12.2 5.8 56 4.2 SE 7 11 4 6 1032.7 1032.8 0.0
21/11:00am 13.0 10.9 6.6 65 3.1 SE 7 9 4 5 1033.1 1033.2 0.0
21/10:30am 11.6 10.0 6.3 70 2.5 SSE 4 7 2 4 1033.5 1033.6 0.0
21/10:00am 9.1 7.0 6.0 81 1.4 S 6 7 3 4 1033.8 1034.0 0.0
21/09:30am 7.2 4.8 5.2 87 0.9 S 7 9 4 5 1033.9 1034.1 0.0
21/09:00am 6.3 4.1 6.2 99 0.0 SSW 7 11 4 6 1033.9 1034.1 0.0
21/08:30am 3.6 1.1 3.5 99 0.0 SSW 6 7 3 4 1034.0 1034.2 0.0
21/08:00am 1.2 -1.9 1.1 99 0.0 SSW 7 9 4 5 1033.8 1034.0 0.0
21/07:36am 1.0 -2.2 0.9 99 0.0 S 7 7 4 4 1033.6 1033.8 0.0
21/07:30am 0.8 -2.2 0.7 99 0.0 S 6 7 3 4 1033.6 1033.8 0.0
21/07:03am 1.0 -0.8 0.9 99 0.0 CALM 0 0 0 0 1033.5 1033.6 0.0
21/07:00am 0.9 -1.0 0.8 99 0.0 CALM 0 0 0 0 1033.5 1033.6 0.0
21/06:30am 1.2 -1.8 1.1 99 0.0 SW 6 7 3 4 1033.4 1033.5 0.0
21/06:18am 0.8 -2.2 0.7 99 0.0 SSW 6 7 3 4 1033.3 1033.4 0.0
21/06:00am 1.5 -1.6 1.4 99 0.0 SSW 7 7 4 4 1033.2 1033.3 0.0
21/05:55am 1.2 -1.9 1.1 99 0.0 SSW 7 7 4 4 1033.2 1033.3 0.0
21/05:30am 1.1 -1.9 1.0 99 0.0 SW 6 7 3 4 1033.2 1033.3 0.0
21/05:20am 1.1 -1.5 1.0 99 0.0 WSW 4 7 2 4 1033.0 1033.1 0.0
21/05:00am 1.0 -1.6 0.9 99 0.0 SW 4 7 2 4 1032.9 1033.0 0.0
21/04:34am 1.3 -1.6 1.2 99 0.0 SSW 6 9 3 5 1033.0 1033.1 0.0
21/04:30am 1.3 -1.8 1.2 99 0.0 SSW 7 9 4 5 1033.0 1033.1 0.0
21/04:00am 1.7 -1.4 1.6 99 0.0 S 7 7 4 4 1033.0 1033.1 0.0
21/03:44am 1.3 -1.6 1.2 99 0.0 SSW 6 7 3 4 1032.9 1033.0 0.0
21/03:30am 1.0 -2.0 0.9 99 0.0 SSW 6 7 3 4 1033.0 1033.1 0.0
21/03:00am 1.3 -1.8 1.2 99 0.0 SW 7 7 4 4 1033.1 1033.2 0.0
21/02:51am 1.0 -2.2 0.9 99 0.0 SSW 7 9 4 5 1033.2 1033.3 0.0
21/02:30am 1.0 -2.0 0.9 99 0.0 SSW 6 7 3 4 1033.2 1033.3 0.0
21/02:15am 2.1 0.4 2.0 99 0.0 CALM 0 7 0 4 1033.1 1033.2 0.0
21/02:08am 2.3 0.7 2.2 99 0.0 CALM 0 0 0 0 1033.1 1033.2 0.0
21/02:00am 2.0 -0.1 1.9 99 0.0 SSE 2 6 1 3 1033.1 1033.2 0.0
21/01:30am 1.8 -1.1 1.7 99 0.0 S 6 7 3 4 1033.0 1033.1 0.0
21/01:04am 2.6 -0.3 2.5 99 0.0 SW 7 9 4 5 1033.1 1033.2 0.0
21/01:00am 2.6 -0.3 2.5 99 0.0 SW 7 9 4 5 1033.1 1033.2 0.0
21/12:30am 1.4 -1.7 1.3 99 0.0 WSW 7 9 4 5 1033.0 1033.1 0.0
21/12:09am 2.2 0.2 2.1 99 0.0 SW 2 7 1 4 1033.1 1033.2 0.0
21/12:00am 2.6 1.0 2.5 99 0.0 CALM 0 0 0 0 1033.1 1033.2 0.0
 
Date/Time
EST
Temp
°C
App
Temp
°C
Dew
Point
°C
Rel
Hum
%
Delta-T
°C
Wind Press
QNH
hPa
Press
MSL
hPa
Rain since
9am
mm
Dir  Spd
km/h
Gust
km/h
Spd
kts
Gust
kts
20/11:30pm 3.0 1.5 2.9 99 0.0 CALM 0 2 0 1 1033.2 1033.3 0.0
20/11:16pm 2.6 0.3 2.5 99 0.0 S 4 6 2 3 1033.2 1033.3 0.0
20/11:00pm 3.1 0.8 3.0 99 0.0 S 4 6 2 3 1033.2 1033.3 0.0
20/10:30pm 3.5 0.9 3.4 99 0.0 S 6 7 3 4 1033.4 1033.5 0.0
20/10:00pm 3.9 1.4 3.8 99 0.0 SW 6 7 3 4 1033.2 1033.3 0.0
20/09:30pm 3.7 1.1 3.4 98 0.1 WSW 6 9 3 5 1032.9 1033.0 0.0
20/09:00pm 3.5 0.8 2.5 93 0.4 SW 6 6 3 3 1032.9 1033.0 0.0
20/08:30pm 5.1 3.0 4.1 93 0.4 S 4 6 2 3 1032.8 1032.9 0.0
20/08:00pm 5.3 2.7 4.3 93 0.4 SSE 7 9 4 5 1032.5 1032.6 0.0
20/07:30pm 5.8 3.3 4.6 92 0.5 SSW 7 9 4 5 1032.5 1032.6 0.0
20/07:00pm 5.5 2.8 3.8 89 0.7 SW 7 7 4 4 1032.4 1032.5 0.0
20/06:30pm 6.0 3.3 2.6 79 1.4 SW 6 7 3 4 1032.2 1032.3 0.0
20/06:00pm 8.6 6.0 3.4 70 2.2 S 6 7 3 4 1031.8 1032.0 0.0
20/05:30pm 10.9 8.0 4.6 65 2.9 SSE 9 9 5 5 1031.7 1031.9 0.0
20/05:00pm 12.8 9.9 4.8 58 3.7 S 9 11 5 6 1031.6 1031.8 0.0
20/04:30pm 14.8 11.8 4.2 49 4.9 S 9 13 5 7 1031.5 1031.7 0.0
20/04:00pm 15.6 11.6 2.7 42 5.8 SSE 13 15 7 8 1031.4 1031.6 0.0
20/03:30pm 15.8 12.1 2.6 41 6.0 SE 11 15 6 8 1031.5 1031.7 0.0
20/03:00pm 16.0 12.1 3.4 43 5.8 SE 13 17 7 9 1031.5 1031.7 0.0
20/02:30pm 16.3 12.8 3.4 42 6.0 SSE 11 15 6 8 1031.6 1031.8 0.0
20/02:00pm 15.9 12.3 3.0 42 5.8 SE 11 17 6 9 1031.7 1031.9 0.0
20/01:30pm 15.7 12.4 4.4 47 5.3 SE 11 15 6 8 1032.0 1032.2 0.0
20/01:00pm 14.9 11.3 4.9 51 4.7 SE 13 19 7 10 1032.5 1032.6 0.0
20/12:30pm 14.3 11.0 4.6 52 4.5 SE 11 17 6 9 1032.8 1032.9 0.0
20/12:00pm 13.4 10.1 4.3 54 4.2 SSE 11 15 6 8 1033.4 1033.5 0.0
20/11:30am 12.4 9.6 5.1 61 3.4 SE 9 15 5 8 1034.0 1034.2 0.0
20/11:00am 11.1 8.5 6.3 72 2.2 SE 9 13 5 7 1034.3 1034.5 0.0
20/10:30am 10.0 8.3 5.8 75 1.9 SE 4 7 2 4 1034.4 1034.6 0.0
20/10:00am 9.2 8.2 5.8 79 1.5 CALM 0 0 0 0 1034.5 1034.7 0.0
20/09:30am 6.4 4.0 5.2 92 0.5 SSW 7 9 4 5 1034.3 1034.5 0.0
20/09:00am 5.1 2.3 5.0 99 0.0 SSW 9 11 5 6 1034.1 1034.3 0.2
20/08:30am 3.1 1.6 3.0 99 0.0 CALM 0 0 0 0 1034.0 1034.2 0.2
20/08:20am 2.4 0.8 2.3 99 0.0 CALM 0 4 0 2 1033.9 1034.1 0.2
20/08:00am 0.6 -1.3 0.5 99 0.0 CALM 0 0 0 0 1033.7 1033.9 0.2
20/07:51am -0.1 -2.1 -0.2 99 0.0 CALM 0 0 0 0 1033.6 1033.8 0.2
20/07:30am 0.0 -2.4 -0.1 99 0.0 NNW 2 6 1 3 1033.4 1033.5 0.2
20/07:13am -0.3 -3.7 -0.4 99 0.0 N 7 7 4 4 1033.1 1033.2 0.2
20/07:10am -0.9 -4.4 -1.0 99 0.0 N 7 11 4 6 1033.1 1033.2 0.2
20/07:00am -0.6 -4.4 -0.7 99 0.0 ENE 9 13 5 7 1032.9 1033.0 0.2
20/06:48am -0.7 -4.1 -0.8 99 0.0 SE 7 9 4 5 1032.7 1032.8 0.2
20/06:30am -0.4 -3.8 -0.5 99 0.0 SSW 7 9 4 5 1032.5 1032.6 0.2
20/06:17am -0.5 -3.9 -0.6 99 0.0 SSW 7 9 4 5 1032.3 1032.4 0.2
20/06:00am -0.2 -3.0 -0.3 99 0.0 SW 4 6 2 3 1032.2 1032.3 0.2
20/05:30am -0.7 -3.6 -0.8 99 0.0 NNW 4 7 2 4 1031.9 1032.1 0.2
20/05:00am -0.1 -2.1 -0.2 99 0.0 CALM 0 0 0 0 1031.6 1031.8 0.2
20/04:34am -0.6 -3.1 -0.7 99 0.0 SSW 2 7 1 4 1031.2 1031.4 0.2
20/04:30am -0.9 -3.8 -1.0 99 0.0 SSW 4 7 2 4 1031.2 1031.4 0.2
20/04:00am 0.8 -1.1 0.7 99 0.0 CALM 0 0 0 0 1031.1 1031.3 0.2
20/03:30am 0.0 -2.0 -0.1 99 0.0 CALM 0 0 0 0 1031.1 1031.3 0.2
20/03:00am 0.9 -2.1 0.8 99 0.0 E 6 7 3 4 1031.0 1031.2 0.2
20/02:50am 1.0 -2.0 0.9 99 0.0 SSE 6 7 3 4 1030.9 1031.1 0.2
20/02:30am 1.1 -2.1 1.0 99 0.0 SSW 7 9 4 5 1030.9 1031.1 0.2
20/02:00am 1.6 -1.3 1.5 99 0.0 S 6 7 3 4 1030.8 1031.0 0.2
20/01:59am 1.5 -1.4 1.4 99 0.0 S 6 7 3 4 1030.8 1031.0 0.2
20/01:34am 2.1 -0.7 2.0 99 0.0 ESE 6 7 3 4 1030.9 1031.1 0.2
20/01:30am 2.1 -0.3 2.0 99 0.0 E 4 7 2 4 1030.9 1031.1 0.2
20/01:00am 2.8 0.9 2.7 99 0.0 WSW 2 7 1 4 1030.9 1031.1 0.2
20/12:30am 3.1 1.6 3.0 99 0.0 CALM 0 6 0 3 1030.8 1031.0 0.2
20/12:00am 3.1 1.5 2.4 95 0.3 CALM 0 4 0 2 1030.8 1031.0 0.2
 
Date/Time
EST
Temp
°C
App
Temp
°C
Dew
Point
°C
Rel
Hum
%
Delta-T
°C
Wind Press
QNH
hPa
Press
MSL
hPa
Rain since
9am
mm
Dir  Spd
km/h
Gust
km/h
Spd
kts
Gust
kts
19/11:30pm 4.0 1.4 3.0 93 0.4 S 6 13 3 7 1030.6 1030.8 0.2
19/11:00pm 5.4 2.5 4.8 96 0.3 S 9 11 5 6 1030.8 1031.0 0.2
19/10:30pm 6.7 4.2 4.9 88 0.8 SSE 7 9 4 5 1031.0 1031.2 0.2
19/10:00pm 7.4 4.2 5.2 86 1.0 S 11 13 6 7 1030.8 1031.0 0.2
19/09:30pm 6.6 3.3 4.4 86 1.0 SE 11 13 6 7 1030.8 1031.0 0.2
19/09:00pm 8.1 4.4 4.5 78 1.6 SSW 13 15 7 8 1030.5 1030.7 0.2
19/08:30pm 8.3 5.0 4.7 78 1.6 SSW 11 13 6 7 1030.2 1030.4 0.2
19/08:00pm 7.9 5.5 5.2 83 1.2 SW 7 9 4 5 1029.9 1030.1 0.2
19/07:30pm 8.8 6.5 4.8 76 1.8 WSW 6 11 3 6 1029.8 1030.0 0.2
19/07:00pm 9.7 6.4 4.7 71 2.2 SSW 11 15 6 8 1029.5 1029.7 0.2
19/06:30pm 9.9 6.3 5.1 72 2.2 SW 13 17 7 9 1029.2 1029.4 0.2
19/06:00pm 9.7 6.5 5.1 73 2.1 WSW 11 13 6 7 1028.9 1029.1 0.2
19/05:30pm 10.2 7.1 5.4 72 2.2 WSW 11 13 6 7 1028.4 1028.6 0.2
19/05:00pm 12.1 8.9 5.0 62 3.3 SW 11 15 6 8 1028.2 1028.4 0.2
19/04:30pm 13.9 10.0 5.5 57 4.0 SW 15 20 8 11 1027.8 1027.9 0.2
19/04:13pm 14.5 11.0 5.6 55 4.3 WSW 13 17 7 9 1027.8 1027.9 0.2
19/04:00pm 14.9 11.7 5.1 52 4.6 WSW 11 15 6 8 1027.6 1027.7 0.2
19/03:54pm 15.0 11.4 5.2 52 4.7 WSW 13 19 7 10 1027.6 1027.7 0.2
19/03:51pm 15.0 11.1 5.2 52 4.7 WSW 15 19 8 10 1027.5 1027.6 0.2
19/03:30pm 15.2 11.6 5.1 51 4.8 WSW 13 17 7 9 1027.2 1027.3 0.2
19/03:24pm 15.1 11.1 5.0 51 4.8 WSW 15 20 8 11 1027.2 1027.3 0.2
19/03:00pm 15.2 11.6 5.1 51 4.8 SW 13 20 7 11 1027.0 1027.1 0.2
19/02:40pm 15.3 11.4 5.2 51 4.8 SSW 15 28 8 15 1027.0 1027.1 0.2
19/02:30pm 15.1 11.5 4.8 50 4.9 WSW 13 24 7 13 1027.0 1027.1 0.2
19/02:05pm 15.1 11.0 4.5 49 5.0 WSW 15 20 8 11 1027.0 1027.1 0.2
19/02:00pm 15.3 11.4 5.2 51 4.8 WSW 15 20 8 11 1027.0 1027.1 0.2
19/01:58pm 15.0 11.3 4.7 50 4.8 WSW 13 20 7 11 1027.0 1027.1 0.2
19/01:48pm 15.3 12.6 5.5 52 4.7 SW 9 20 5 11 1026.9 1027.0 0.2
19/01:32pm 14.4 12.9 5.2 54 4.4 NW 2 7 1 4 1027.1 1027.2 0.2
19/01:30pm 14.3 12.9 5.4 55 4.2 WNW 2 9 1 5 1027.2 1027.3 0.2
19/01:06pm 13.6 10.6 6.0 60 3.6 SW 11 19 6 10 1027.4 1027.5 0.2
19/01:03pm 13.9 11.0 6.5 61 3.6 SW 11 17 6 9 1027.4 1027.5 0.2
19/01:00pm 13.7 11.1 6.1 60 3.6 SW 9 17 5 9 1027.4 1027.5 0.2
19/12:47pm 14.0 11.7 5.6 57 4.0 SSW 7 13 4 7 1027.6 1027.7 0.2
19/12:35pm 13.6 10.7 6.5 62 3.4 SW 11 13 6 7 1027.6 1027.7 0.2
19/12:30pm 12.7 9.3 5.8 63 3.3 SW 13 20 7 11 1027.7 1027.8 0.2
19/12:15pm 13.6 11.2 6.9 64 3.3 SW 9 17 5 9 1027.9 1028.0 0.0
19/12:00pm 12.8 10.9 7.5 70 2.6 SSE 7 11 4 6 1028.1 1028.3 0.0
19/11:30am 11.9 10.0 7.6 75 2.1 ENE 7 11 4 6 1028.4 1028.6 0.0
19/11:00am 10.2 8.5 7.4 83 1.3 ENE 6 11 3 6 1028.6 1028.8 0.0
19/10:30am 8.9 7.4 7.0 88 0.9 SSE 4 9 2 5 1028.8 1029.0 0.0
19/10:05am 7.8 6.5 7.7 99 0.0 ESE 4 9 2 5 1028.9 1029.1 0.0
19/10:00am 7.1 6.4 7.0 99 0.0 CALM 0 0 0 0 1028.9 1029.1 0.0
19/09:30am 5.6 3.4 5.5 99 0.0 SSE 6 9 3 5 1029.0 1029.2 0.0

Other formats

Comma delimited format used in spreadsheet applications
http://www.bom.gov.au/fwo/IDV60801/IDV60801.94889.axf

JavaScript Object Notation format (JSON) in row-major order
http://www.bom.gov.au/fwo/IDV60801/IDV60801.94889.json

Data quality

Most of these data are generated automatically and are frequently updated. Quality checks on data are not normally performed. It is possible for incorrect values to appear. Refer to information at About Latest Weather Observations and please check the disclaimer before using these data.